Time;durP1;ratioP1;P1;durP2;ratioP2;P2;SDS_P1;SDS_P2;PMS_P1;PMS_P2;Temp;Humidity;BMP_temperature;BMP_pressure;BME280_temperature;BME280_humidity;BME280_pressure;Samples;Min_cycle;Max_cycle;Signal;HPM_P1;HPM_P2
2023/07/15 00:02:51;;;;;;;;;;;;;;;14.42;69.47;95530.88;6298121;28;20385;-69
2023/07/15 00:05:53;;;;;;;;;;;;;;;14.48;69.37;95530.25;6298255;28;20297;-69
2023/07/15 00:08:57;;;;;;;;;;;;;;;14.52;69.10;95527.19;6296431;28;19963;-70
2023/07/15 00:12:01;;;;;;;;;;;;;;;14.68;69.46;95525.59;6297939;28;19925;-69
2023/07/15 00:15:06;;;;;;;;;;;;;;;14.67;69.43;95522.13;6280347;28;19950;-70
2023/07/15 00:18:11;;;;;;;;;;;;;;;14.73;69.39;95521.50;6297556;28;19931;-69
2023/07/15 00:21:17;;;;;;;;;;;;;;;14.74;69.35;95525.78;6297064;28;19924;-68
2023/07/15 00:24:23;;;;;;;;;;;;;;;14.75;69.37;95527.47;6280096;28;20389;-69
2023/07/15 00:27:26;;;;;;;;;;;;;;;14.93;69.21;95523.91;6296569;28;19926;-70
2023/07/15 00:30:28;;;;;;;;;;;;;;;14.79;69.20;95536.75;6279602;28;19929;-69
2023/07/15 00:33:33;;;;;;;;;;;;;;;14.73;69.61;95534.72;6297469;28;19939;-69
2023/07/15 00:36:37;;;;;;;;;;;;;;;14.77;69.70;95533.41;6296966;28;19928;-70
2023/07/15 00:39:40;;;;;;;;;;;;;;;14.84;69.38;95544.22;6297512;28;19924;-69
2023/07/15 00:43:02;;;;;;;;;;;;;;;14.88;69.71;95526.19;6297210;28;20394;-69
2023/07/15 00:46:19;;;;;;;;;;;;;;;14.72;69.73;95525.13;6278576;28;20066;-70
2023/07/15 00:49:23;;;;;;;;;;;;;;;14.65;70.10;95534.69;6297034;28;19924;-70
2023/07/15 00:52:28;;;;;;;;;;;;;;;14.70;70.09;95534.22;6296735;28;19924;-69
2023/07/15 00:55:32;;;;;;;;;;;;;;;14.89;70.10;95525.19;6296848;28;19931;-72
2023/07/15 00:58:35;;;;;;;;;;;;;;;14.70;70.08;95535.06;6296755;28;19929;-71
2023/07/15 01:01:41;;;;;;;;;;;;;;;14.73;70.42;95534.72;6296747;28;20397;-69
2023/07/15 01:04:43;;;;;;;;;;;;;;;14.78;70.35;95532.44;6296516;28;19931;-70
2023/07/15 01:07:52;;;;;;;;;;;;;;;14.76;70.30;95538.88;6279381;28;19925;-70
2023/07/15 01:10:55;;;;;;;;;;;;;;;14.79;70.60;95539.38;6295430;28;19925;-70
2023/07/15 01:13:56;;;;;;;;;;;;;;;14.85;70.34;95542.41;6278725;28;19931;-69
2023/07/15 01:17:02;;;;;;;;;;;;;;;14.94;70.43;95536.16;6296136;28;19924;-69
2023/07/15 01:20:05;;;;;;;;;;;;;;;15.02;70.09;95539.66;6294486;28;19924;-70
2023/07/15 01:23:09;;;;;;;;;;;;;;;15.04;69.95;95552.75;6295885;28;19943;-70
2023/07/15 01:26:10;;;;;;;;;;;;;;;15.19;69.65;95545.84;6295312;28;19924;-69
2023/07/15 01:29:13;;;;;;;;;;;;;;;15.30;69.74;95549.19;6295998;28;19921;-70
2023/07/15 01:32:14;;;;;;;;;;;;;;;15.34;69.58;95542.56;6278148;28;19924;-70
2023/07/15 01:35:15;;;;;;;;;;;;;;;15.40;69.26;95552.53;6295243;28;19925;-71
2023/07/15 01:38:19;;;;;;;;;;;;;;;15.64;68.58;95544.63;6294807;28;20281;-69
2023/07/15 01:41:23;;;;;;;;;;;;;;;15.66;68.47;95547.16;6295862;28;20326;-69
2023/07/15 01:44:26;;;;;;;;;;;;;;;15.88;67.67;95551.00;6278317;28;19920;-69
2023/07/15 01:47:28;;;;;;;;;;;;;;;15.91;67.37;95543.56;6294639;28;20015;-69
2023/07/15 01:50:29;;;;;;;;;;;;;;;16.01;67.29;95540.72;6295686;28;19920;-69
2023/07/15 01:53:33;;;;;;;;;;;;;;;15.99;67.41;95552.50;6295442;28;19924;-69
2023/07/15 01:56:36;;;;;;;;;;;;;;;16.19;66.80;95545.03;6295553;28;20370;-69
2023/07/15 01:59:39;;;;;;;;;;;;;;;16.26;66.62;95544.22;6295390;28;20285;-68
2023/07/15 02:02:45;;;;;;;;;;;;;;;16.34;66.42;95532.75;6295277;28;19920;-69
2023/07/15 02:05:48;;;;;;;;;;;;;;;16.42;65.98;95535.41;6294577;28;19925;-69
2023/07/15 02:08:54;;;;;;;;;;;;;;;16.56;65.25;95542.69;6277735;28;19925;-69
2023/07/15 02:11:57;;;;;;;;;;;;;;;16.55;64.90;95533.03;6294450;28;20444;-70
2023/07/15 02:15:01;;;;;;;;;;;;;;;16.51;65.11;95537.03;6295247;28;19929;-69
2023/07/15 02:18:04;;;;;;;;;;;;;;;16.60;64.47;95535.19;6294622;28;19947;-69
2023/07/15 02:21:06;;;;;;;;;;;;;;;16.54;64.54;95547.31;6294432;28;20006;-69
2023/07/15 02:24:07;;;;;;;;;;;;;;;16.61;64.45;95536.84;6294380;28;19924;-69
2023/07/15 02:27:12;;;;;;;;;;;;;;;16.74;64.27;95539.00;6294657;28;19924;-69
2023/07/15 02:30:16;;;;;;;;;;;;;;;16.79;64.22;95539.34;6295272;28;20349;-70
2023/07/15 02:33:18;;;;;;;;;;;;;;;16.80;64.23;95541.00;6294013;28;19929;-69
2023/07/15 02:36:21;;;;;;;;;;;;;;;17.02;62.96;95537.59;6294917;28;19931;-68
2023/07/15 02:39:26;;;;;;;;;;;;;;;16.95;63.59;95533.97;6293906;28;19924;-69
2023/07/15 02:42:33;;;;;;;;;;;;;;;17.10;62.76;95536.75;6294501;28;19931;-70
2023/07/15 02:45:33;;;;;;;;;;;;;;;17.06;63.19;95544.22;6293860;28;20321;-70
2023/07/15 02:48:35;;;;;;;;;;;;;;;17.19;63.17;95545.50;6294287;28;19924;-70
2023/07/15 02:51:35;;;;;;;;;;;;;;;17.35;62.60;95558.69;6293893;28;19924;-69
2023/07/15 02:54:40;;;;;;;;;;;;;;;17.56;62.22;95557.28;6294051;28;19924;-69
2023/07/15 02:57:41;;;;;;;;;;;;;;;17.84;61.63;95555.00;6294153;28;20305;-71
2023/07/15 03:00:42;;;;;;;;;;;;;;;17.97;61.21;95570.34;6275648;28;19924;-71
2023/07/15 03:03:48;;;;;;;;;;;;;;;17.99;61.33;95568.34;6294902;28;20305;-69
2023/07/15 03:06:49;;;;;;;;;;;;;;;18.15;60.78;95565.59;6293653;28;20347;-69
2023/07/15 03:09:50;;;;;;;;;;;;;;;18.39;59.96;95564.53;6293321;28;19931;-70
2023/07/15 03:12:51;;;;;;;;;;;;;;;18.56;59.42;95563.38;6294190;28;20390;-70
2023/07/15 03:15:52;;;;;;;;;;;;;;;18.78;58.09;95559.03;6275972;28;20412;-71
2023/07/15 03:18:58;;;;;;;;;;;;;;;19.00;57.31;95561.81;6294085;28;19924;-70
2023/07/15 03:22:00;;;;;;;;;;;;;;;19.12;57.18;95576.31;6294301;28;19924;-70
2023/07/15 03:25:09;;;;;;;;;;;;;;;19.28;56.15;95584.16;6294207;28;19931;-70
2023/07/15 03:28:11;;;;;;;;;;;;;;;19.38;54.91;95597.19;6293485;28;19924;-70
2023/07/15 03:31:15;;;;;;;;;;;;;;;19.32;54.27;95581.94;6294015;28;19924;-70
2023/07/15 03:34:22;;;;;;;;;;;;;;;19.31;53.52;95590.94;6294425;28;20229;-70
2023/07/15 03:37:25;;;;;;;;;;;;;;;19.27;53.04;95589.66;6275778;28;19924;-70
2023/07/15 03:40:28;;;;;;;;;;;;;;;19.16;53.51;95588.25;6294156;28;19928;-69
2023/07/15 03:43:32;;;;;;;;;;;;;;;19.22;53.61;95587.56;6296879;28;20422;-70
2023/07/15 03:46:36;;;;;;;;;;;;;;;19.19;53.36;95585.25;6299246;28;19924;-71
2023/07/15 03:49:45;;;;;;;;;;;;;;;19.25;53.31;95581.03;6280440;28;19924;-70
2023/07/15 03:52:49;;;;;;;;;;;;;;;19.32;53.43;95589.09;6297367;28;19931;-70
2023/07/15 03:55:53;;;;;;;;;;;;;;;19.50;52.62;95594.88;6280122;28;19932;-70
2023/07/15 03:58:58;;;;;;;;;;;;;;;19.55;52.19;95592.47;6297616;28;19924;-71
2023/07/15 04:02:04;;;;;;;;;;;;;;;19.62;52.05;95598.72;6297359;28;19924;-70
2023/07/15 04:05:08;;;;;;;;;;;;;;;19.70;52.25;95604.00;6280768;28;20127;-69
2023/07/15 04:08:11;;;;;;;;;;;;;;;19.88;51.47;95594.75;6298018;28;19924;-70
2023/07/15 04:11:17;;;;;;;;;;;;;;;19.96;51.42;95599.97;6297935;28;19924;-70
2023/07/15 04:14:21;;;;;;;;;;;;;;;19.90;51.34;95590.03;6297883;28;19924;-70
2023/07/15 04:17:22;;;;;;;;;;;;;;;20.07;50.90;95586.13;6296485;28;20413;-71
2023/07/15 04:20:26;;;;;;;;;;;;;;;20.12;50.61;95591.69;6297852;28;19928;-71
2023/07/15 04:23:30;;;;;;;;;;;;;;;20.06;50.75;95588.97;6297454;28;20023;-69
2023/07/15 04:26:35;;;;;;;;;;;;;;;20.07;50.26;95590.63;6297404;28;19925;-69
2023/07/15 04:29:37;;;;;;;;;;;;;;;20.27;49.83;95585.47;6297300;28;19925;-69
2023/07/15 04:32:41;;;;;;;;;;;;;;;20.47;49.43;95591.84;6279719;28;20389;-71
2023/07/15 04:35:46;;;;;;;;;;;;;;;20.66;48.50;95592.22;6296919;28;20373;-71
2023/07/15 04:38:47;;;;;;;;;;;;;;;20.59;48.29;95584.97;6296564;28;19924;-70
2023/07/15 04:41:51;;;;;;;;;;;;;;;20.68;47.55;95593.69;6296402;28;19924;-71
2023/07/15 04:44:54;;;;;;;;;;;;;;;21.00;46.83;95592.25;6296837;28;19924;-70
2023/07/15 04:48:00;;;;;;;;;;;;;;;22.34;44.23;95615.13;6296003;28;19924;-70
2023/07/15 04:51:03;;;;;;;;;;;;;;;25.09;39.47;95603.03;6296500;28;20382;-70
2023/07/15 04:54:04;;;;;;;;;;;;;;;27.62;36.34;95615.75;6295870;28;19931;-70
2023/07/15 04:57:07;;;;;;;;;;;;;;;30.12;32.62;95615.66;6296834;28;19931;-70
2023/07/15 05:00:16;;;;;;;;;;;;;;;31.85;29.68;95618.28;6296736;28;20390;-71
2023/07/15 05:03:20;;;;;;;;;;;;;;;34.11;27.28;95612.81;6296489;28;19924;-70
2023/07/15 05:06:23;;;;;;;;;;;;;;;36.62;25.56;95619.63;6296420;28;20022;-71
2023/07/15 05:09:29;;;;;;;;;;;;;;;37.97;26.67;95617.16;6278797;28;19924;-71
2023/07/15 05:12:33;;;;;;;;;;;;;;;36.27;25.04;95595.44;6296466;28;19924;-70
2023/07/15 05:15:38;;;;;;;;;;;;;;;33.41;25.98;95595.50;6296103;28;19924;-72
2023/07/15 05:18:44;;;;;;;;;;;;;;;31.41;27.18;95599.56;6295582;28;20019;-70
2023/07/15 05:21:46;;;;;;;;;;;;;;;31.75;27.71;95600.81;6293638;28;19924;-71
2023/07/15 05:24:50;;;;;;;;;;;;;;;30.84;28.07;95596.38;6296003;28;19986;-70
2023/07/15 05:27:51;;;;;;;;;;;;;;;30.37;28.25;95602.41;6261543;28;19998;-70
2023/07/15 05:30:52;;;;;;;;;;;;;;;31.50;27.14;95593.34;6295714;28;20382;-71
2023/07/15 05:33:58;;;;;;;;;;;;;;;33.57;24.92;95597.09;6296056;28;20317;-70
2023/07/15 05:37:05;;;;;;;;;;;;;;;36.85;21.74;95603.41;6295446;28;20342;-71
2023/07/15 05:40:09;;;;;;;;;;;;;;;39.26;19.26;95616.78;6294322;28;20034;-70
2023/07/15 05:43:15;;;;;;;;;;;;;;;40.98;18.02;95592.16;6295232;28;19924;-69
2023/07/15 05:46:21;;;;;;;;;;;;;;;42.51;17.09;95601.78;6295150;28;19928;-70
2023/07/15 05:49:30;;;;;;;;;;;;;;;43.85;16.22;95611.84;6294761;28;19970;-70
2023/07/15 05:52:31;;;;;;;;;;;;;;;44.43;15.46;95593.22;6294205;28;19924;-71
2023/07/15 05:55:35;;;;;;;;;;;;;;;42.03;16.44;95586.44;6294614;28;19931;-71
2023/07/15 05:58:37;;;;;;;;;;;;;;;41.16;15.74;95581.94;6277216;28;20405;-70
2023/07/15 06:01:41;;;;;;;;;;;;;;;38.24;18.06;95569.63;6294711;28;20007;-71
2023/07/15 06:04:45;;;;;;;;;;;;;;;36.53;20.03;95572.09;6295466;28;19932;-71
2023/07/15 06:07:49;;;;;;;;;;;;;;;37.15;19.18;95573.91;6294189;28;19925;-70
2023/07/15 06:10:53;;;;;;;;;;;;;;;36.84;20.03;95568.88;6294813;28;20003;-70
2023/07/15 06:14:00;;;;;;;;;;;;;;;35.52;20.55;95581.19;6294843;28;19925;-71
2023/07/15 06:17:03;;;;;;;;;;;;;;;34.00;21.84;95572.97;6294183;28;19920;-71
2023/07/15 06:20:07;;;;;;;;;;;;;;;36.44;19.45;95584.81;6294968;28;19924;-70
2023/07/15 06:23:10;;;;;;;;;;;;;;;38.51;18.40;95573.50;6294303;28;19924;-71
2023/07/15 06:26:14;;;;;;;;;;;;;;;40.83;16.86;95585.19;6294616;28;19928;-70
2023/07/15 06:29:16;;;;;;;;;;;;;;;43.18;15.48;95592.50;6275348;28;19935;-71
2023/07/15 06:32:23;;;;;;;;;;;;;;;45.26;13.27;95616.72;6294502;28;19924;-70
2023/07/15 06:35:25;;;;;;;;;;;;;;;43.22;13.83;95598.97;6290768;28;19932;-71
2023/07/15 06:38:30;;;;;;;;;;;;;;;43.20;13.76;95609.59;6277185;28;19929;-71
2023/07/15 06:41:41;;;;;;;;;;;;;;;42.63;14.50;95603.81;6294630;28;19924;-71
2023/07/15 06:44:48;;;;;;;;;;;;;;;43.63;13.69;95613.91;6294765;28;19924;-71
2023/07/15 06:47:52;;;;;;;;;;;;;;;45.03;13.04;95622.00;6294517;28;19924;-72
2023/07/15 06:50:54;;;;;;;;;;;;;;;41.88;14.06;95613.44;6276085;28;19932;-71
2023/07/15 06:54:01;;;;;;;;;;;;;;;38.73;16.98;95614.75;6294387;28;19929;-71
2023/07/15 06:57:04;;;;;;;;;;;;;;;40.72;16.07;95621.69;6294543;28;19925;-70
2023/07/15 07:00:08;;;;;;;;;;;;;;;43.41;14.03;95614.28;6293942;28;19924;-71
2023/07/15 07:03:11;;;;;;;;;;;;;;;45.23;12.67;95627.75;6293969;28;19924;-71
2023/07/15 07:06:16;;;;;;;;;;;;;;;42.93;13.56;95621.19;6294308;28;20023;-70
2023/07/15 07:09:20;;;;;;;;;;;;;;;38.65;16.90;95600.94;6274561;28;19972;-72
2023/07/15 07:12:26;;;;;;;;;;;;;;;35.53;19.00;95602.00;6276691;28;20293;-72
2023/07/15 07:15:36;;;;;;;;;;;;;;;33.61;20.67;95594.66;6293975;28;19924;-71
2023/07/15 07:18:40;;;;;;;;;;;;;;;31.79;22.67;95600.28;6295512;28;19936;-72
2023/07/15 07:21:46;;;;;;;;;;;;;;;31.33;22.93;95585.31;6298948;28;19924;-73
2023/07/15 07:24:49;;;;;;;;;;;;;;;34.07;20.50;95597.25;6299068;28;19925;-71
2023/07/15 07:27:52;;;;;;;;;;;;;;;36.07;18.24;95597.34;6298845;28;20305;-71
2023/07/15 07:30:53;;;;;;;;;;;;;;;34.33;19.80;95603.41;6297852;28;20382;-72
2023/07/15 07:33:59;;;;;;;;;;;;;;;35.62;19.23;95602.19;6298462;28;19975;-71
2023/07/15 07:37:03;;;;;;;;;;;;;;;38.85;16.33;95612.25;6298458;28;19924;-71
2023/07/15 07:40:06;;;;;;;;;;;;;;;40.08;15.70;95619.38;6297735;28;20412;-73
2023/07/15 07:43:09;;;;;;;;;;;;;;;42.10;14.36;95608.84;6281033;28;19924;-71
2023/07/15 07:46:15;;;;;;;;;;;;;;;42.93;13.81;95615.66;6298289;28;19920;-72
2023/07/15 07:49:21;;;;;;;;;;;;;;;40.24;15.63;95622.53;6298292;28;19924;-71
2023/07/15 07:52:24;;;;;;;;;;;;;;;39.24;16.25;95610.81;6280449;28;19921;-71
2023/07/15 07:55:25;;;;;;;;;;;;;;;39.84;15.77;95608.75;6298479;28;19924;-71
2023/07/15 07:58:28;;;;;;;;;;;;;;;42.38;14.34;95609.19;6298040;28;20010;-71
2023/07/15 08:01:31;;;;;;;;;;;;;;;43.93;13.56;95617.28;6297838;28;19924;-72
2023/07/15 08:04:35;;;;;;;;;;;;;;;46.43;11.97;95622.16;6298037;28;19924;-71
2023/07/15 08:07:37;;;;;;;;;;;;;;;44.87;12.22;95625.84;6297806;28;20070;-72
2023/07/15 08:10:41;;;;;;;;;;;;;;;41.29;13.79;95618.78;6297490;28;19925;-72
2023/07/15 08:13:47;;;;;;;;;;;;;;;41.78;13.55;95621.28;6297905;28;20430;-71
2023/07/15 08:16:51;;;;;;;;;;;;;;;39.41;15.29;95617.59;6297624;28;19925;-71
2023/07/15 08:19:52;;;;;;;;;;;;;;;38.30;16.36;95612.34;6279456;28;19924;-71
2023/07/15 08:22:56;;;;;;;;;;;;;;;41.32;14.34;95609.84;6297531;28;19928;-72
2023/07/15 08:25:59;;;;;;;;;;;;;;;44.04;12.46;95617.69;6297353;28;20403;-71
2023/07/15 08:29:03;;;;;;;;;;;;;;;44.03;11.94;95629.13;6296041;28;20581;-71
2023/07/15 08:32:06;;;;;;;;;;;;;;;43.60;12.52;95625.69;6296714;28;20424;-73
2023/07/15 08:35:11;;;;;;;;;;;;;;;40.33;14.07;95615.09;6297074;28;20309;-71
2023/07/15 08:38:17;;;;;;;;;;;;;;;36.64;16.37;95595.50;6297222;28;19925;-71
2023/07/15 08:41:22;;;;;;;;;;;;;;;34.98;17.98;95592.34;6297380;28;19931;-72
2023/07/15 08:44:25;;;;;;;;;;;;;;;37.29;16.66;95593.94;6278476;28;20356;-71
2023/07/15 08:47:29;;;;;;;;;;;;;;;39.95;14.87;95599.09;6296898;28;19924;-71
2023/07/15 08:50:33;;;;;;;;;;;;;;;42.70;12.92;95604.91;6296467;28;19920;-72
2023/07/15 08:53:38;;;;;;;;;;;;;;;43.47;12.23;95615.69;6296889;28;19924;-71
2023/07/15 08:56:41;;;;;;;;;;;;;;;42.93;11.88;95616.47;6296337;28;19927;-72
2023/07/15 08:59:43;;;;;;;;;;;;;;;40.67;13.50;95606.09;6295254;28;19925;-73
2023/07/15 09:02:46;;;;;;;;;;;;;;;40.67;13.32;95614.38;6296716;28;19924;-72
2023/07/15 09:05:48;;;;;;;;;;;;;;;41.91;12.63;95590.72;6295381;28;19934;-72
2023/07/15 09:08:51;;;;;;;;;;;;;;;43.62;11.95;95589.31;6296501;28;20301;-72
2023/07/15 09:11:59;;;;;;;;;;;;;;;45.38;11.08;95607.56;6295426;28;20047;-71
2023/07/15 09:15:00;;;;;;;;;;;;;;;45.54;10.75;95610.38;6295987;28;19928;-71
2023/07/15 09:18:07;;;;;;;;;;;;;;;42.23;12.94;95601.44;6296095;28;19970;-72
2023/07/15 09:21:11;;;;;;;;;;;;;;;39.33;14.66;95602.63;6295309;28;19931;-72
2023/07/15 09:24:17;;;;;;;;;;;;;;;41.07;13.93;95608.72;6296208;28;19924;-71
2023/07/15 09:27:25;;;;;;;;;;;;;;;40.46;13.75;95611.41;6299492;28;19924;-71
2023/07/15 09:30:28;;;;;;;;;;;;;;;37.62;15.60;95602.16;6319896;28;19954;-70
2023/07/15 09:33:33;;;;;;;;;;;;;;;35.35;17.73;95593.69;6321047;28;19924;-71
2023/07/15 09:36:35;;;;;;;;;;;;;;;33.29;19.23;95591.13;6320568;28;20018;-70
2023/07/15 09:39:36;;;;;;;;;;;;;;;32.35;20.31;95582.28;6320329;28;19930;-73
2023/07/15 09:42:54;;;;;;;;;;;;;;;31.67;21.68;95590.44;6320270;28;19924;-71
2023/07/15 09:45:55;;;;;;;;;;;;;;;33.74;19.71;95596.78;6320289;28;20321;-72
2023/07/15 09:48:57;;;;;;;;;;;;;;;35.49;18.13;95600.09;6320563;28;19924;-73
2023/07/15 09:52:01;;;;;;;;;;;;;;;36.75;17.10;95601.66;6319999;28;20320;-72
2023/07/15 09:55:05;;;;;;;;;;;;;;;39.05;15.07;95605.50;6320828;28;19924;-71
2023/07/15 09:58:13;;;;;;;;;;;;;;;40.57;14.11;95601.69;6320626;28;20332;-71
2023/07/15 10:01:39;;;;;;;;;;;;;;;41.08;13.24;95596.56;6320624;28;20093;-71
2023/07/15 10:04:43;;;;;;;;;;;;;;;41.01;13.13;95604.47;6273099;28;20318;-71
2023/07/15 10:07:44;;;;;;;;;;;;;;;40.79;12.75;95591.66;6319111;28;19930;-71
2023/07/15 10:10:45;;;;;;;;;;;;;;;40.38;13.01;95596.47;6319623;28;20066;-69
2023/07/15 10:13:49;;;;;;;;;;;;;;;38.94;13.13;95586.81;6320268;28;19928;-71
2023/07/15 10:17:09;;;;;;;;;;;;;;;38.15;14.37;95590.72;6320186;28;19924;-71
2023/07/15 10:20:13;;;;;;;;;;;;;;;38.54;14.31;95592.91;6319642;28;19924;-70
2023/07/15 10:23:24;;;;;;;;;;;;;;;39.25;13.95;95595.09;6319141;28;19931;-71
2023/07/15 10:26:25;;;;;;;;;;;;;;;39.64;13.49;95594.38;6320050;28;20006;-70
2023/07/15 10:29:32;;;;;;;;;;;;;;;39.04;14.27;95608.56;6319927;28;19924;-69
2023/07/15 10:32:35;;;;;;;;;;;;;;;35.81;17.08;95601.44;6320033;28;19951;-71
2023/07/15 10:35:41;;;;;;;;;;;;;;;33.48;18.56;95587.81;6319756;28;20308;-71
2023/07/15 10:38:46;;;;;;;;;;;;;;;32.02;19.82;95580.84;6302138;28;19924;-72
2023/07/15 10:41:53;;;;;;;;;;;;;;;31.62;20.62;95590.44;6319737;28;20397;-71
2023/07/15 10:44:54;;;;;;;;;;;;;;;32.43;19.97;95583.69;6301380;28;19931;-71
2023/07/15 10:47:58;;;;;;;;;;;;;;;34.86;18.18;95590.78;6319555;28;19924;-71
2023/07/15 10:51:05;;;;;;;;;;;;;;;36.74;16.57;95599.19;6302064;28;20309;-73
2023/07/15 10:54:09;;;;;;;;;;;;;;;37.14;16.17;95589.50;6324061;28;19924;-71
2023/07/15 10:57:14;;;;;;;;;;;;;;;37.15;16.09;95593.09;6323628;28;19924;-72
2023/07/15 11:00:15;;;;;;;;;;;;;;;36.91;16.59;95588.50;6322996;28;20305;-71
2023/07/15 11:03:19;;;;;;;;;;;;;;;35.40;17.18;95597.19;6324753;28;19924;-71
2023/07/15 11:06:24;;;;;;;;;;;;;;;33.29;19.06;95582.13;6306399;28;19927;-71
2023/07/15 11:09:28;;;;;;;;;;;;;;;31.83;20.19;95587.81;6323934;28;19924;-71
2023/07/15 11:12:32;;;;;;;;;;;;;;;31.21;21.44;95589.34;6324473;28;19920;-71
2023/07/15 11:15:37;;;;;;;;;;;;;;;31.08;21.33;95590.59;6324721;28;19924;-71
2023/07/15 11:18:43;;;;;;;;;;;;;;;30.79;21.15;95593.63;6324429;28;19924;-71
2023/07/15 11:21:44;;;;;;;;;;;;;;;31.04;21.58;95584.06;6323822;28;20448;-71
2023/07/15 11:24:48;;;;;;;;;;;;;;;32.65;20.00;95586.22;6324277;28;19924;-71
2023/07/15 11:27:49;;;;;;;;;;;;;;;34.47;18.39;95584.47;6323582;28;20054;-71
2023/07/15 11:30:50;;;;;;;;;;;;;;;34.93;18.15;95589.63;6323744;28;19931;-71
2023/07/15 11:33:57;;;;;;;;;;;;;;;33.80;18.80;95583.94;6324160;28;20345;-70
2023/07/15 11:37:05;;;;;;;;;;;;;;;32.53;19.98;95589.19;6323414;28;19932;-71
2023/07/15 11:40:06;;;;;;;;;;;;;;;31.45;21.18;95587.06;6324008;28;19924;-71
2023/07/15 11:43:09;;;;;;;;;;;;;;;31.48;21.32;95583.81;6323652;28;19924;-70
2023/07/15 11:46:10;;;;;;;;;;;;;;;32.85;19.94;95579.94;6323611;28;19931;-71
2023/07/15 11:49:20;;;;;;;;;;;;;;;34.12;18.75;95591.78;6322640;28;20463;-71
2023/07/15 11:52:22;;;;;;;;;;;;;;;34.04;18.47;95587.69;6323698;28;20290;-70
2023/07/15 11:55:24;;;;;;;;;;;;;;;32.98;19.23;95579.41;6323706;28;19931;-71
2023/07/15 11:58:38;;;;;;;;;;;;;;;32.04;20.00;95584.09;6323202;28;19928;-69
2023/07/15 12:01:42;;;;;;;;;;;;;;;30.98;21.20;95585.09;6323465;28;19931;-71
2023/07/15 12:04:43;;;;;;;;;;;;;;;30.34;22.06;95586.63;6304415;28;20011;-71
2023/07/15 12:07:51;;;;;;;;;;;;;;;30.74;21.43;95590.00;6323228;28;20301;-71
2023/07/15 12:10:56;;;;;;;;;;;;;;;30.92;21.63;95580.72;6322490;28;19959;-71
2023/07/15 12:14:00;;;;;;;;;;;;;;;30.93;21.29;95582.34;6323133;28;19924;-73
2023/07/15 12:17:02;;;;;;;;;;;;;;;30.54;21.71;95579.78;6323020;28;19924;-71
2023/07/15 12:20:04;;;;;;;;;;;;;;;30.11;22.54;95582.31;6322299;28;19931;-71
2023/07/15 12:23:08;;;;;;;;;;;;;;;30.65;21.77;95587.75;6322363;28;19924;-71
2023/07/15 12:26:09;;;;;;;;;;;;;;;31.64;20.75;95582.81;6322681;28;20006;-71
2023/07/15 12:29:10;;;;;;;;;;;;;;;32.62;20.31;95587.56;6322563;28;19924;-71
2023/07/15 12:32:13;;;;;;;;;;;;;;;32.94;20.14;95589.22;6304324;28;19989;-71
2023/07/15 12:35:15;;;;;;;;;;;;;;;32.80;20.44;95577.22;6321420;28;20305;-71
2023/07/15 12:38:19;;;;;;;;;;;;;;;32.06;20.88;95590.13;6322436;28;22324;-72
2023/07/15 12:41:25;;;;;;;;;;;;;;;31.28;21.51;95587.19;6322359;28;19924;-71
2023/07/15 12:44:27;;;;;;;;;;;;;;;30.21;22.55;95587.03;6322413;28;19973;-72
2023/07/15 12:47:31;;;;;;;;;;;;;;;29.23;23.66;95578.69;6322019;28;20404;-71
2023/07/15 12:50:34;;;;;;;;;;;;;;;29.03;23.88;95582.72;6322241;28;20013;-71
2023/07/15 12:53:37;;;;;;;;;;;;;;;29.56;23.07;95582.41;6321665;28;20377;-72
2023/07/15 12:56:39;;;;;;;;;;;;;;;30.04;22.47;95587.13;6321292;28;19938;-72
2023/07/15 12:59:41;;;;;;;;;;;;;;;30.20;22.64;95580.78;6322037;28;20437;-71
2023/07/15 13:02:43;;;;;;;;;;;;;;;29.92;22.78;95589.97;6321792;28;20426;-71
2023/07/15 13:05:46;;;;;;;;;;;;;;;29.68;23.24;95588.56;6321131;28;19978;-72
2023/07/15 13:08:50;;;;;;;;;;;;;;;29.22;23.64;95588.72;6321729;28;19924;-71
2023/07/15 13:11:53;;;;;;;;;;;;;;;29.04;23.88;95595.19;6321616;28;20305;-71
2023/07/15 13:14:54;;;;;;;;;;;;;;;29.04;24.08;95595.19;6321312;28;19924;-72
2023/07/15 13:17:55;;;;;;;;;;;;;;;28.93;24.13;95598.81;6320611;28;19990;-71
2023/07/15 13:20:59;;;;;;;;;;;;;;;28.77;24.52;95594.19;6321813;28;20026;-71
2023/07/15 13:24:01;;;;;;;;;;;;;;;28.48;24.90;95596.13;6320125;28;19931;-71
2023/07/15 13:27:02;;;;;;;;;;;;;;;28.40;24.91;95600.84;6321324;28;19924;-72
2023/07/15 13:30:03;;;;;;;;;;;;;;;28.39;25.26;95598.38;6320879;28;19937;-72
2023/07/15 13:33:09;;;;;;;;;;;;;;;28.37;25.12;95600.50;6321381;28;19928;-71
2023/07/15 13:36:10;;;;;;;;;;;;;;;28.51;24.89;95601.88;6320843;28;19923;-71
2023/07/15 13:39:31;;;;;;;;;;;;;;;28.92;24.57;95610.69;6320701;28;19930;-70
2023/07/15 13:42:34;;;;;;;;;;;;;;;28.74;24.81;95594.69;6303388;28;20209;-71
2023/07/15 13:45:38;;;;;;;;;;;;;;;28.33;25.36;95596.63;6320760;28;19928;-71
2023/07/15 13:48:39;;;;;;;;;;;;;;;27.96;25.81;95605.94;6319821;28;20424;-71
2023/07/15 13:51:42;;;;;;;;;;;;;;;27.68;25.97;95603.16;6318790;28;19924;-71
2023/07/15 13:54:46;;;;;;;;;;;;;;;27.76;25.92;95600.09;6320797;28;19919;-71
2023/07/15 13:57:47;;;;;;;;;;;;;;;28.09;25.74;95599.44;6319121;28;19931;-71
2023/07/15 14:00:48;;;;;;;;;;;;;;;28.27;25.29;95600.31;6319601;28;19974;-73
2023/07/15 14:03:50;;;;;;;;;;;;;;;28.50;24.94;95594.00;6319775;28;20364;-71
2023/07/15 14:06:53;;;;;;;;;;;;;;;28.46;24.98;95599.06;6319293;28;19963;-71
2023/07/15 14:09:54;;;;;;;;;;;;;;;28.40;24.60;95602.72;6319350;28;19931;-72
2023/07/15 14:12:57;;;;;;;;;;;;;;;28.28;24.83;95604.66;6320091;28;19924;-71
2023/07/15 14:16:00;;;;;;;;;;;;;;;28.04;25.18;95612.84;6318956;28;19938;-72
2023/07/15 14:19:03;;;;;;;;;;;;;;;27.85;25.05;95605.97;6319576;28;20026;-72
2023/07/15 14:22:08;;;;;;;;;;;;;;;27.68;25.27;95609.38;6319875;28;20013;-71
2023/07/15 14:25:12;;;;;;;;;;;;;;;27.35;25.42;95606.50;6319454;28;19927;-71
2023/07/15 14:28:18;;;;;;;;;;;;;;;26.98;25.91;95607.53;6318699;28;19924;-71
2023/07/15 14:31:21;;;;;;;;;;;;;;;26.64;26.20;95603.72;6319814;28;19920;-72
2023/07/15 14:34:22;;;;;;;;;;;;;;;26.26;26.72;95602.16;6301050;28;19924;-70
2023/07/15 14:37:26;;;;;;;;;;;;;;;25.89;27.09;95599.53;6319608;28;19924;-71
2023/07/15 14:40:32;;;;;;;;;;;;;;;25.59;27.83;95606.69;6319023;28;20123;-72
2023/07/15 14:43:35;;;;;;;;;;;;;;;25.36;28.21;95602.78;6300903;28;20009;-71
2023/07/15 14:46:39;;;;;;;;;;;;;;;25.17;28.19;95603.84;6319784;28;19967;-70
2023/07/15 14:49:40;;;;;;;;;;;;;;;25.13;28.32;95598.03;6318887;28;19931;-72
2023/07/15 14:52:46;;;;;;;;;;;;;;;25.20;28.23;95598.00;6318703;28;19930;-72
2023/07/15 14:55:52;;;;;;;;;;;;;;;25.34;28.25;95604.91;6319444;28;19924;-72
2023/07/15 14:58:55;;;;;;;;;;;;;;;25.41;28.78;95602.13;6318622;28;20397;-71
2023/07/15 15:02:01;;;;;;;;;;;;;;;25.35;28.80;95597.66;6319509;28;20334;-71
2023/07/15 15:05:02;;;;;;;;;;;;;;;25.26;28.90;95595.25;6319477;28;19920;-72
2023/07/15 15:08:05;;;;;;;;;;;;;;;25.21;29.29;95596.94;6318949;28;19954;-70
2023/07/15 15:11:12;;;;;;;;;;;;;;;25.16;29.27;95602.16;6319581;28;19924;-72
2023/07/15 15:14:15;;;;;;;;;;;;;;;25.06;29.08;95603.47;6318659;28;20315;-71
2023/07/15 15:17:19;;;;;;;;;;;;;;;24.95;30.04;95600.69;6300393;28;19970;-69
2023/07/15 15:20:20;;;;;;;;;;;;;;;24.79;29.43;95602.88;6318292;28;19924;-71
2023/07/15 15:23:23;;;;;;;;;;;;;;;24.57;29.86;95599.75;6318222;28;19924;-71
2023/07/15 15:26:28;;;;;;;;;;;;;;;24.34;30.40;95594.06;6319282;28;19924;-70
2023/07/15 15:29:32;;;;;;;;;;;;;;;24.13;31.05;95596.06;6319063;28;19924;-71
2023/07/15 15:32:35;;;;;;;;;;;;;;;23.94;31.75;95605.03;6301032;28;20434;-71
2023/07/15 15:35:41;;;;;;;;;;;;;;;23.80;31.78;95614.19;6319223;28;19924;-71
2023/07/15 15:38:42;;;;;;;;;;;;;;;23.65;31.91;95617.13;6319264;28;20070;-70
2023/07/15 15:41:46;;;;;;;;;;;;;;;23.47;32.56;95625.88;6323926;28;20090;-72
2023/07/15 15:44:55;;;;;;;;;;;;;;;23.27;33.22;95631.28;6305581;28;19924;-71
2023/07/15 15:48:00;;;;;;;;;;;;;;;23.06;33.71;95624.25;6323562;28;19928;-70
2023/07/15 15:51:01;;;;;;;;;;;;;;;22.86;33.80;95625.06;6322607;28;19924;-72
2023/07/15 15:54:06;;;;;;;;;;;;;;;22.67;34.13;95620.53;6323545;28;19960;-70
2023/07/15 15:57:10;;;;;;;;;;;;;;;22.50;34.75;95624.63;6304774;28;20069;-70
2023/07/15 16:00:11;;;;;;;;;;;;;;;22.37;34.42;95631.63;6322463;28;20412;-69